Time;durP1;ratioP1;P1;durP2;ratioP2;P2;SDS_P1;SDS_P2;PMS_P1;PMS_P2;Temp;Humidity;BMP_temperature;BMP_pressure;BME280_temperature;BME280_humidity;BME280_pressure;Samples;Min_cycle;Max_cycle;Signal;HPM_P1;HPM_P2
2022/04/07 00:02:06;;;;;;;91.18;22.77;;;;;;;;;;5068686;28;20028;-47
2022/04/07 00:04:33;;;;;;;134.82;32.03;;;;;;;;;;5066221;28;20038;-49
2022/04/07 00:07:00;;;;;;;150.93;36.85;;;;;;;;;;5067522;28;20027;-47
2022/04/07 00:09:27;;;;;;;171.18;39.42;;;;;;;;;;5069396;28;20028;-48
2022/04/07 00:11:54;;;;;;;167.30;40.10;;;;;;;;;;5068861;28;20040;-46
2022/04/07 00:14:21;;;;;;;162.63;38.83;;;;;;;;;;5068039;28;20539;-47
2022/04/07 00:16:48;;;;;;;143.73;36.28;;;;;;;;;;5068259;28;20163;-47
2022/04/07 00:19:15;;;;;;;158.60;36.05;;;;;;;;;;5066368;28;20028;-46
2022/04/07 00:21:46;;;;;;;168.55;34.72;;;;;;;;;;5069306;28;20063;-45
2022/04/07 00:24:13;;;;;;;155.65;33.78;;;;;;;;;;5069211;28;20033;-48
2022/04/07 00:26:40;;;;;;;152.90;34.53;;;;;;;;;;5069291;28;20066;-47
2022/04/07 00:29:07;;;;;;;153.48;33.47;;;;;;;;;;5069385;28;20469;-46
2022/04/07 00:31:40;;;;;;;149.07;31.80;;;;;;;;;;5051920;28;20040;-45
2022/04/07 00:34:08;;;;;;;137.18;30.88;;;;;;;;;;5070841;28;20028;-45
2022/04/07 00:36:35;;;;;;;138.70;31.00;;;;;;;;;;5070545;28;20032;-43
2022/04/07 00:39:02;;;;;;;161.35;30.02;;;;;;;;;;5070730;28;20066;-43
2022/04/07 00:41:29;;;;;;;150.05;30.48;;;;;;;;;;5069812;28;20046;-43
2022/04/07 00:43:56;;;;;;;144.60;29.88;;;;;;;;;;5069987;28;20046;-41
2022/04/07 00:46:23;;;;;;;134.10;31.20;;;;;;;;;;5070397;28;20053;-43
2022/04/07 00:48:50;;;;;;;135.48;29.38;;;;;;;;;;5052654;28;20033;-42
2022/04/07 00:51:17;;;;;;;151.95;29.95;;;;;;;;;;5070331;28;20031;-43
2022/04/07 00:53:45;;;;;;;146.10;29.80;;;;;;;;;;5070340;28;20492;-41
2022/04/07 00:56:13;;;;;;;152.32;30.98;;;;;;;;;;5089047;28;20075;-42
2022/04/07 00:58:40;;;;;;;139.90;32.15;;;;;;;;;;5090475;28;20543;-42
2022/04/07 01:01:08;;;;;;;135.23;29.38;;;;;;;;;;5090747;28;20153;-43
2022/04/07 01:03:35;;;;;;;133.20;30.35;;;;;;;;;;5090609;28;20061;-42
2022/04/07 01:06:03;;;;;;;141.45;29.75;;;;;;;;;;5090377;28;20020;-42
2022/04/07 01:08:30;;;;;;;139.32;29.13;;;;;;;;;;5090739;28;20103;-41
2022/04/07 01:10:57;;;;;;;137.10;28.95;;;;;;;;;;5090482;28;20047;-41
2022/04/07 01:13:24;;;;;;;136.82;28.73;;;;;;;;;;5080392;28;20021;-43
2022/04/07 01:15:51;;;;;;;133.80;27.88;;;;;;;;;;5070185;28;20032;-43
2022/04/07 01:18:18;;;;;;;120.72;27.05;;;;;;;;;;5070612;28;20029;-42
2022/04/07 01:20:45;;;;;;;116.30;27.45;;;;;;;;;;5069610;28;20090;-43
2022/04/07 01:23:12;;;;;;;123.57;28.27;;;;;;;;;;5070288;28;20062;-42
2022/04/07 01:25:39;;;;;;;99.10;25.48;;;;;;;;;;5052107;28;20032;-41
2022/04/07 01:28:07;;;;;;;127.20;27.17;;;;;;;;;;5071562;28;20073;-41
2022/04/07 01:30:34;;;;;;;103.78;25.98;;;;;;;;;;5073463;28;20029;-42
2022/04/07 01:33:02;;;;;;;107.22;25.88;;;;;;;;;;5056135;28;20123;-41
2022/04/07 01:35:30;;;;;;;124.63;27.40;;;;;;;;;;5073475;28;20090;-45
2022/04/07 01:37:58;;;;;;;118.38;25.45;;;;;;;;;;5073482;28;20043;-41
2022/04/07 01:40:26;;;;;;;115.90;27.08;;;;;;;;;;5073796;28;20493;-42
2022/04/07 01:42:53;;;;;;;108.70;25.88;;;;;;;;;;5055234;28;20051;-42
2022/04/07 01:45:21;;;;;;;106.68;24.15;;;;;;;;;;5073460;28;20047;-41
2022/04/07 01:47:49;;;;;;;108.88;25.98;;;;;;;;;;5090292;28;20044;-42
2022/04/07 01:50:17;;;;;;;104.38;25.30;;;;;;;;;;5072999;28;20043;-41
2022/04/07 01:52:45;;;;;;;100.00;23.75;;;;;;;;;;5073264;28;20040;-41
2022/04/07 01:55:12;;;;;;;94.55;23.95;;;;;;;;;;5068320;28;20028;-47
2022/04/07 01:57:39;;;;;;;97.35;24.13;;;;;;;;;;5072162;28;20157;-46
2022/04/07 02:00:07;;;;;;;103.22;24.42;;;;;;;;;;5073312;28;20040;-47
2022/04/07 02:02:33;;;;;;;96.60;24.67;;;;;;;;;;5073199;28;20028;-47
2022/04/07 02:05:08;;;;;;;91.65;22.17;;;;;;;;;;5073432;28;20027;-49
2022/04/07 02:07:35;;;;;;;91.50;23.33;;;;;;;;;;5073485;28;20078;-48
2022/04/07 02:10:03;;;;;;;99.45;22.63;;;;;;;;;;5073468;28;20078;-48
2022/04/07 02:12:30;;;;;;;93.78;22.95;;;;;;;;;;5073582;28;20029;-49
2022/04/07 02:14:59;;;;;;;94.50;21.75;;;;;;;;;;5073856;28;20056;-48
2022/04/07 02:17:26;;;;;;;95.05;23.20;;;;;;;;;;5073569;28;20028;-48
2022/04/07 02:19:55;;;;;;;87.95;21.58;;;;;;;;;;5073885;28;20029;-48
2022/04/07 02:22:22;;;;;;;90.07;21.40;;;;;;;;;;5073734;28;20166;-50
2022/04/07 02:24:49;;;;;;;84.60;22.02;;;;;;;;;;5073623;28;20486;-51
2022/04/07 02:27:17;;;;;;;79.93;21.63;;;;;;;;;;5073516;28;20033;-49
2022/04/07 02:29:44;;;;;;;92.35;21.50;;;;;;;;;;5073007;28;20052;-52
2022/04/07 02:32:11;;;;;;;84.38;20.33;;;;;;;;;;5073627;28;20033;-48
2022/04/07 02:34:39;;;;;;;92.93;19.27;;;;;;;;;;5073610;28;20036;-47
2022/04/07 02:37:06;;;;;;;72.38;20.10;;;;;;;;;;5073617;28;20024;-48
2022/04/07 02:39:34;;;;;;;87.40;20.83;;;;;;;;;;5073359;28;20583;-51
2022/04/07 02:42:01;;;;;;;71.28;19.40;;;;;;;;;;5073237;28;20039;-47
2022/04/07 02:44:28;;;;;;;71.75;17.80;;;;;;;;;;5073362;28;20025;-46
2022/04/07 02:46:55;;;;;;;87.53;19.40;;;;;;;;;;5073228;28;20060;-49
2022/04/07 02:49:22;;;;;;;77.20;19.33;;;;;;;;;;5072278;28;20035;-50
2022/04/07 02:51:50;;;;;;;79.60;19.65;;;;;;;;;;5070219;28;20086;-49
2022/04/07 02:54:17;;;;;;;71.38;18.77;;;;;;;;;;5072896;28;20395;-49
2022/04/07 02:56:44;;;;;;;74.40;18.98;;;;;;;;;;5073162;28;20397;-46
2022/04/07 02:59:11;;;;;;;75.68;19.05;;;;;;;;;;5073381;28;20031;-47
2022/04/07 03:01:38;;;;;;;75.00;18.38;;;;;;;;;;5073317;28;20024;-48
2022/04/07 03:04:05;;;;;;;68.63;17.92;;;;;;;;;;5055219;28;20032;-48
2022/04/07 03:06:32;;;;;;;63.28;17.15;;;;;;;;;;5073183;28;20431;-47
2022/04/07 03:08:59;;;;;;;70.68;19.10;;;;;;;;;;5073295;28;20095;-48
2022/04/07 03:11:26;;;;;;;65.55;18.10;;;;;;;;;;5073069;28;20032;-48
2022/04/07 03:13:53;;;;;;;72.70;18.38;;;;;;;;;;5072948;28;20039;-50
2022/04/07 03:16:20;;;;;;;59.05;15.75;;;;;;;;;;5073037;28;20029;-47
2022/04/07 03:18:47;;;;;;;61.20;17.95;;;;;;;;;;5054987;28;20032;-47
2022/04/07 03:21:14;;;;;;;66.55;17.23;;;;;;;;;;5073009;28;20032;-49
2022/04/07 03:23:41;;;;;;;65.55;16.08;;;;;;;;;;5072867;28;20379;-47
2022/04/07 03:26:08;;;;;;;55.67;16.20;;;;;;;;;;5072803;28;20445;-48
2022/04/07 03:28:35;;;;;;;53.55;16.92;;;;;;;;;;5072845;28;20040;-47
2022/04/07 03:31:02;;;;;;;50.97;16.35;;;;;;;;;;5072612;28;20032;-46
2022/04/07 03:33:29;;;;;;;62.70;16.67;;;;;;;;;;5072574;28;20044;-46
2022/04/07 03:35:58;;;;;;;59.80;17.02;;;;;;;;;;5072761;28;20494;-48
2022/04/07 03:38:25;;;;;;;54.13;16.40;;;;;;;;;;5072622;28;20488;-47
2022/04/07 03:40:52;;;;;;;60.55;15.02;;;;;;;;;;5072632;28;20024;-51
2022/04/07 03:43:19;;;;;;;50.58;15.13;;;;;;;;;;5072450;28;20500;-47
2022/04/07 03:45:46;;;;;;;46.03;14.63;;;;;;;;;;5072441;28;20040;-49
2022/04/07 03:48:12;;;;;;;57.17;16.60;;;;;;;;;;5072407;28;20036;-47
2022/04/07 03:50:40;;;;;;;58.15;15.93;;;;;;;;;;5071836;28;20440;-48
2022/04/07 03:53:08;;;;;;;56.30;15.23;;;;;;;;;;5072204;28;20466;-47
2022/04/07 03:55:35;;;;;;;55.20;16.67;;;;;;;;;;5072281;28;20108;-48
2022/04/07 03:58:02;;;;;;;55.47;14.93;;;;;;;;;;5072260;28;20549;-47
2022/04/07 04:00:30;;;;;;;52.90;13.88;;;;;;;;;;5072228;28;20025;-47
2022/04/07 04:02:57;;;;;;;53.90;15.35;;;;;;;;;;5072412;28;20122;-46
2022/04/07 04:05:24;;;;;;;46.90;14.73;;;;;;;;;;5072126;28;20052;-49
2022/04/07 04:07:51;;;;;;;49.53;14.20;;;;;;;;;;5072121;28;20507;-49
2022/04/07 04:10:18;;;;;;;51.20;13.43;;;;;;;;;;5072202;28;20491;-47
2022/04/07 04:12:45;;;;;;;50.47;14.50;;;;;;;;;;5072061;28;20099;-47
2022/04/07 04:15:12;;;;;;;47.08;14.40;;;;;;;;;;5072051;28;20083;-48
2022/04/07 04:17:39;;;;;;;41.85;13.43;;;;;;;;;;5072106;28;20094;-48
2022/04/07 04:20:06;;;;;;;45.75;12.23;;;;;;;;;;5071937;28;20074;-48
2022/04/07 04:22:33;;;;;;;58.38;13.82;;;;;;;;;;5071985;28;20535;-47
2022/04/07 04:25:00;;;;;;;44.17;12.70;;;;;;;;;;5071789;28;20021;-47
2022/04/07 04:27:27;;;;;;;41.22;12.45;;;;;;;;;;5071892;28;20028;-47
2022/04/07 04:29:54;;;;;;;40.40;13.55;;;;;;;;;;5071832;28;20093;-47
2022/04/07 04:32:21;;;;;;;44.70;12.68;;;;;;;;;;5071745;28;20406;-48
2022/04/07 04:34:48;;;;;;;43.38;13.30;;;;;;;;;;5071782;28;20029;-47
2022/04/07 04:37:15;;;;;;;42.70;12.50;;;;;;;;;;5071860;28;20036;-47
2022/04/07 04:39:42;;;;;;;42.92;12.88;;;;;;;;;;5071864;28;20032;-48
2022/04/07 04:42:09;;;;;;;37.28;12.50;;;;;;;;;;5071746;28;20036;-49
2022/04/07 04:44:36;;;;;;;37.40;11.43;;;;;;;;;;5071613;28;20050;-46
2022/04/07 04:47:03;;;;;;;41.28;13.23;;;;;;;;;;5071510;28;20131;-49
2022/04/07 04:49:30;;;;;;;41.65;11.95;;;;;;;;;;5071746;28;20021;-48
2022/04/07 04:51:57;;;;;;;41.85;12.48;;;;;;;;;;5071722;28;20139;-50
2022/04/07 04:54:24;;;;;;;40.78;12.07;;;;;;;;;;5071499;28;20028;-48
2022/04/07 04:56:51;;;;;;;39.72;11.95;;;;;;;;;;5071666;28;20020;-47
2022/04/07 04:59:18;;;;;;;38.05;12.18;;;;;;;;;;5071667;28;20474;-48
2022/04/07 05:01:45;;;;;;;36.00;11.77;;;;;;;;;;5071619;28;20082;-46
2022/04/07 05:04:12;;;;;;;33.40;11.50;;;;;;;;;;5074833;28;20055;-48
2022/04/07 05:06:39;;;;;;;36.10;11.52;;;;;;;;;;5075634;28;20033;-47
2022/04/07 05:09:06;;;;;;;44.10;11.98;;;;;;;;;;5075520;28;20024;-47
2022/04/07 05:11:34;;;;;;;34.88;11.52;;;;;;;;;;5075615;28;20037;-50
2022/04/07 05:14:01;;;;;;;36.92;11.77;;;;;;;;;;5075479;28;20062;-46
2022/04/07 05:16:28;;;;;;;33.25;10.85;;;;;;;;;;5075387;28;20028;-47
2022/04/07 05:18:55;;;;;;;34.55;11.02;;;;;;;;;;5075438;28;20024;-47
2022/04/07 05:21:23;;;;;;;35.72;10.88;;;;;;;;;;5075030;28;20036;-48
2022/04/07 05:23:50;;;;;;;31.55;10.68;;;;;;;;;;5075162;28;20386;-47
2022/04/07 05:26:17;;;;;;;31.05;10.23;;;;;;;;;;5075189;28;20024;-49
2022/04/07 05:28:44;;;;;;;32.50;11.10;;;;;;;;;;5075193;28;20612;-49
2022/04/07 05:31:11;;;;;;;41.13;11.65;;;;;;;;;;5075061;28;20036;-48
2022/04/07 05:33:38;;;;;;;31.63;10.23;;;;;;;;;;5074978;28;20390;-46
2022/04/07 05:36:05;;;;;;;32.42;11.02;;;;;;;;;;5075075;28;20044;-47
2022/04/07 05:38:32;;;;;;;30.92;11.52;;;;;;;;;;5074984;28;20128;-46
2022/04/07 05:40:59;;;;;;;32.17;9.95;;;;;;;;;;5075017;28;20116;-47
2022/04/07 05:43:26;;;;;;;31.15;10.48;;;;;;;;;;5074728;28;20544;-48
2022/04/07 05:45:53;;;;;;;35.53;11.00;;;;;;;;;;5074502;28;20051;-46
2022/04/07 05:48:20;;;;;;;32.60;10.50;;;;;;;;;;5074837;28;20043;-47
2022/04/07 05:50:47;;;;;;;23.73;9.18;;;;;;;;;;5074729;28;20029;-46
2022/04/07 05:53:14;;;;;;;29.52;9.80;;;;;;;;;;5074681;28;20075;-48
2022/04/07 05:55:41;;;;;;;34.47;9.95;;;;;;;;;;5074653;28;20127;-48
2022/04/07 05:58:09;;;;;;;30.02;10.10;;;;;;;;;;5074595;28;20024;-49
2022/04/07 06:00:37;;;;;;;31.65;10.43;;;;;;;;;;5074567;28;20099;-47
2022/04/07 06:03:04;;;;;;;31.30;9.18;;;;;;;;;;5074550;28;20034;-47
2022/04/07 06:05:31;;;;;;;30.73;10.00;;;;;;;;;;5074625;28;20037;-46
2022/04/07 06:08:02;;;;;;;26.40;9.68;;;;;;;;;;5074441;28;20055;-47
2022/04/07 06:10:29;;;;;;;25.55;9.48;;;;;;;;;;5074353;28;20378;-48
2022/04/07 06:12:56;;;;;;;25.55;9.68;;;;;;;;;;5074217;28;20036;-47
2022/04/07 06:15:23;;;;;;;28.17;8.70;;;;;;;;;;5073900;28;20032;-50
2022/04/07 06:17:50;;;;;;;24.65;9.27;;;;;;;;;;5074302;28;20036;-50
2022/04/07 06:20:17;;;;;;;28.75;9.02;;;;;;;;;;5074300;28;20016;-48
2022/04/07 06:22:45;;;;;;;27.55;9.55;;;;;;;;;;5074210;28;20212;-47
2022/04/07 06:25:13;;;;;;;24.25;8.68;;;;;;;;;;5074092;28;20054;-47
2022/04/07 06:27:44;;;;;;;31.35;9.15;;;;;;;;;;5074107;28;20036;-47
2022/04/07 06:30:13;;;;;;;20.30;8.07;;;;;;;;;;5074037;28;20504;-47
2022/04/07 06:32:40;;;;;;;25.00;8.20;;;;;;;;;;5073999;28;20431;-50
2022/04/07 06:35:08;;;;;;;24.52;8.75;;;;;;;;;;5073943;28;20021;-47
2022/04/07 06:37:56;;;;;;;25.20;8.50;;;;;;;;;;5073906;28;20533;-48
2022/04/07 06:40:23;;;;;;;27.58;9.77;;;;;;;;;;5073753;28;20060;-47
2022/04/07 06:42:51;;;;;;;26.83;8.35;;;;;;;;;;5073723;28;20508;-48
2022/04/07 06:45:19;;;;;;;24.75;8.38;;;;;;;;;;5073857;28;20051;-46
2022/04/07 06:47:46;;;;;;;27.70;9.32;;;;;;;;;;5073470;28;20106;-47
2022/04/07 06:50:14;;;;;;;21.83;7.97;;;;;;;;;;5073716;28;20104;-47
2022/04/07 06:52:41;;;;;;;22.38;9.05;;;;;;;;;;5073549;28;20043;-48
2022/04/07 06:55:08;;;;;;;23.30;8.52;;;;;;;;;;5055734;28;20103;-49
2022/04/07 06:57:53;;;;;;;16.60;7.88;;;;;;;;;;5073513;28;20031;-50
2022/04/07 07:00:22;;;;;;;20.55;8.50;;;;;;;;;;5073503;28;20031;-49
2022/04/07 07:02:52;;;;;;;30.80;8.95;;;;;;;;;;5073279;28;20095;-49
2022/04/07 07:05:19;;;;;;;24.00;8.48;;;;;;;;;;5073226;28;20063;-49
2022/04/07 07:07:46;;;;;;;22.38;8.57;;;;;;;;;;5073241;28;20086;-49
2022/04/07 07:10:13;;;;;;;21.10;7.32;;;;;;;;;;5073294;28;20021;-50
2022/04/07 07:12:40;;;;;;;22.17;8.63;;;;;;;;;;5073127;28;20047;-49
2022/04/07 07:15:07;;;;;;;21.60;7.18;;;;;;;;;;5073094;28;20056;-49
2022/04/07 07:17:38;;;;;;;19.67;8.05;;;;;;;;;;5073018;28;20028;-49
2022/04/07 07:20:05;;;;;;;26.77;7.82;;;;;;;;;;5073097;28;20095;-49
2022/04/07 07:22:32;;;;;;;19.05;8.18;;;;;;;;;;5073109;28;20029;-49
2022/04/07 07:24:59;;;;;;;24.90;8.10;;;;;;;;;;5201700;22;20487;-46
2022/04/07 07:27:26;;;;;;;19.27;7.43;;;;;;;;;;5013804;28;20030;-43
2022/04/07 07:29:53;;;;;;;21.08;7.78;;;;;;;;;;5013773;28;20028;-45
2022/04/07 07:32:20;;;;;;;22.17;7.95;;;;;;;;;;5013132;28;20092;-46
2022/04/07 07:34:47;;;;;;;19.25;8.55;;;;;;;;;;5013570;28;20021;-46
2022/04/07 07:37:18;;;;;;;20.85;8.05;;;;;;;;;;5013622;28;20021;-45
2022/04/07 07:39:44;;;;;;;21.08;7.80;;;;;;;;;;5013563;28;20026;-43
2022/04/07 07:42:11;;;;;;;20.80;7.05;;;;;;;;;;5013350;28;20533;-43
2022/04/07 07:44:38;;;;;;;20.48;7.70;;;;;;;;;;5013212;28;20422;-43
2022/04/07 07:47:05;;;;;;;21.05;7.40;;;;;;;;;;5013328;28;20022;-43
2022/04/07 07:49:32;;;;;;;18.92;7.82;;;;;;;;;;5013398;28;20049;-43
2022/04/07 07:51:59;;;;;;;20.52;7.30;;;;;;;;;;5013289;28;20145;-43
2022/04/07 07:54:26;;;;;;;18.33;6.97;;;;;;;;;;4995414;28;20053;-43
2022/04/07 07:56:54;;;;;;;17.83;7.28;;;;;;;;;;5013120;28;20073;-43
2022/04/07 07:59:21;;;;;;;17.85;6.90;;;;;;;;;;5013213;28;20020;-43
2022/04/07 08:01:48;;;;;;;19.10;7.40;;;;;;;;;;5013018;28;20056;-43
2022/04/07 08:04:16;;;;;;;17.05;7.05;;;;;;;;;;5013006;28;20049;-43
2022/04/07 08:06:43;;;;;;;18.30;6.88;;;;;;;;;;5013128;28;20072;-43
2022/04/07 08:09:10;;;;;;;19.15;7.43;;;;;;;;;;5012931;28;20032;-43
2022/04/07 08:11:37;;;;;;;24.02;7.45;;;;;;;;;;5012919;28;20033;-43
2022/04/07 08:14:04;;;;;;;17.80;7.47;;;;;;;;;;5013083;28;20507;-43
2022/04/07 08:16:31;;;;;;;18.10;6.85;;;;;;;;;;5012755;28;20061;-43
2022/04/07 08:18:59;;;;;;;20.50;7.00;;;;;;;;;;5012911;28;20438;-43
2022/04/07 08:21:26;;;;;;;20.00;7.05;;;;;;;;;;5012672;28;20494;-43
2022/04/07 08:23:53;;;;;;;16.60;7.00;;;;;;;;;;5012773;28;20022;-43
2022/04/07 08:26:20;;;;;;;16.58;6.43;;;;;;;;;;5012528;28;20117;-43
2022/04/07 08:28:47;;;;;;;19.30;6.57;;;;;;;;;;5012826;28;20030;-43
2022/04/07 08:31:14;;;;;;;18.58;6.18;;;;;;;;;;5012663;28;20109;-43
2022/04/07 08:33:41;;;;;;;17.60;6.53;;;;;;;;;;5012649;28;20037;-43
2022/04/07 08:36:08;;;;;;;16.00;6.82;;;;;;;;;;5012504;28;20029;-43
2022/04/07 08:38:35;;;;;;;14.70;6.38;;;;;;;;;;5012584;28;20369;-43
2022/04/07 08:41:02;;;;;;;14.23;5.28;;;;;;;;;;5012577;28;20057;-43
2022/04/07 08:43:29;;;;;;;13.77;6.20;;;;;;;;;;5012529;28;20395;-43
2022/04/07 08:45:56;;;;;;;14.35;6.15;;;;;;;;;;5012308;28;20069;-43
2022/04/07 08:48:24;;;;;;;18.63;6.38;;;;;;;;;;5012473;28;20022;-43
2022/04/07 08:50:51;;;;;;;14.10;6.57;;;;;;;;;;5012486;28;20030;-43
2022/04/07 08:53:18;;;;;;;11.13;5.82;;;;;;;;;;5012520;28;20037;-43
2022/04/07 08:55:45;;;;;;;15.50;6.47;;;;;;;;;;5012394;28;20033;-43
2022/04/07 08:58:17;;;;;;;13.50;5.45;;;;;;;;;;5012391;28;20053;-45
2022/04/07 09:00:45;;;;;;;12.52;5.30;;;;;;;;;;5012356;28;20029;-46
2022/04/07 09:03:11;;;;;;;16.58;5.90;;;;;;;;;;5012500;28;20030;-47
2022/04/07 09:05:51;;;;;;;12.82;5.60;;;;;;;;;;5012225;28;20022;-45
2022/04/07 09:08:19;;;;;;;19.38;5.70;;;;;;;;;;5012279;28;20033;-45
2022/04/07 09:10:56;;;;;;;16.95;5.90;;;;;;;;;;5012165;28;20030;-45
2022/04/07 09:13:23;;;;;;;18.83;6.45;;;;;;;;;;5012202;28;20030;-46
2022/04/07 09:15:50;;;;;;;18.15;6.10;;;;;;;;;;5012319;28;20056;-46
2022/04/07 09:18:26;;;;;;;19.80;6.20;;;;;;;;;;5012270;28;20038;-46
2022/04/07 09:20:53;;;;;;;17.42;5.82;;;;;;;;;;5009023;28;20034;-46
2022/04/07 09:23:20;;;;;;;20.80;5.90;;;;;;;;;;5009665;28;20030;-46
2022/04/07 09:25:49;;;;;;;18.77;6.38;;;;;;;;;;5010882;28;20050;-46
2022/04/07 09:28:45;;;;;;;21.50;6.15;;;;;;;;;;5011045;28;20058;-44
2022/04/07 09:31:16;;;;;;;16.80;5.45;;;;;;;;;;5002868;28;20129;-43
2022/04/07 09:33:43;;;;;;;19.90;5.68;;;;;;;;;;5011681;28;20037;-43
2022/04/07 09:36:11;;;;;;;16.67;5.53;;;;;;;;;;5011614;28;20049;-43
2022/04/07 09:38:39;;;;;;;23.73;6.70;;;;;;;;;;5011690;28;20022;-43
2022/04/07 09:41:13;;;;;;;18.38;6.00;;;;;;;;;;5011447;28;20034;-43
2022/04/07 09:43:46;;;;;;;17.77;5.70;;;;;;;;;;5011561;28;20073;-43
2022/04/07 09:46:14;;;;;;;20.23;5.60;;;;;;;;;;5011399;28;20034;-43
2022/04/07 09:48:58;;;;;;;18.50;5.75;;;;;;;;;;5012332;28;20037;-44
2022/04/07 09:51:27;;;;;;;20.25;5.93;;;;;;;;;;4997366;28;20572;-43
2022/04/07 09:53:57;;;;;;;23.40;6.35;;;;;;;;;;5014799;28;20084;-43
2022/04/07 09:56:28;;;;;;;25.08;6.28;;;;;;;;;;5015106;28;20026;-43
2022/04/07 09:58:56;;;;;;;25.90;6.68;;;;;;;;;;5014989;28;20021;-43
2022/04/07 10:01:24;;;;;;;25.83;6.15;;;;;;;;;;5014892;28;20048;-43
2022/04/07 10:03:51;;;;;;;22.55;5.95;;;;;;;;;;5014977;28;20033;-43
2022/04/07 10:06:19;;;;;;;18.75;6.15;;;;;;;;;;5014881;28;20026;-43
2022/04/07 10:08:50;;;;;;;19.63;6.10;;;;;;;;;;5014925;28;20255;-43
2022/04/07 10:11:17;;;;;;;17.98;4.95;;;;;;;;;;5014738;28;20038;-43
2022/04/07 10:13:48;;;;;;;23.55;5.50;;;;;;;;;;5014840;28;20026;-43
2022/04/07 10:16:16;;;;;;;17.48;5.68;;;;;;;;;;5014684;28;20026;-43
2022/04/07 10:18:46;;;;;;;26.30;5.47;;;;;;;;;;5014594;28;20034;-44
2022/04/07 10:21:20;;;;;;;27.73;5.85;;;;;;;;;;5014625;28;20443;-43
2022/04/07 10:24:10;;;;;;;29.35;7.65;;;;;;;;;;5014360;28;20368;-43
2022/04/07 10:26:40;;;;;;;20.48;5.32;;;;;;;;;;5014168;28;20144;-44
2022/04/07 10:29:07;;;;;;;33.58;6.97;;;;;;;;;;5014453;28;20060;-44
2022/04/07 10:31:34;;;;;;;33.03;6.60;;;;;;;;;;5014227;28;20412;-43
2022/04/07 10:34:07;;;;;;;42.58;7.13;;;;;;;;;;5014216;28;20109;-44
2022/04/07 10:36:43;;;;;;;36.67;6.28;;;;;;;;;;5014377;28;20022;-43
2022/04/07 10:39:13;;;;;;;22.35;6.15;;;;;;;;;;5014216;28;20034;-43
2022/04/07 10:41:40;;;;;;;28.23;6.50;;;;;;;;;;5014239;28;20021;-43
2022/04/07 10:44:08;;;;;;;24.65;5.93;;;;;;;;;;5014075;28;20018;-43
2022/04/07 10:46:35;;;;;;;34.13;7.22;;;;;;;;;;5014061;28;20026;-43
2022/04/07 10:49:06;;;;;;;35.03;6.30;;;;;;;;;;5014157;28;20022;-43
2022/04/07 10:51:44;;;;;;;31.17;6.83;;;;;;;;;;5014114;28;20397;-43
2022/04/07 10:54:11;;;;;;;37.13;7.07;;;;;;;;;;5013897;28;20049;-43
2022/04/07 10:56:39;;;;;;;34.60;7.22;;;;;;;;;;5014119;28;20072;-43
2022/04/07 10:59:13;;;;;;;42.95;7.45;;;;;;;;;;5013844;28;20475;-43
2022/04/07 11:01:40;;;;;;;33.53;7.47;;;;;;;;;;5013752;28;20049;-42
2022/04/07 11:07:04;;;;;;;39.58;7.82;;;;;;;;;;5013707;28;20034;-43
2022/04/07 11:09:49;;;;;;;35.70;7.30;;;;;;;;;;5013671;28;20070;-43
2022/04/07 11:12:16;;;;;;;37.28;6.93;;;;;;;;;;5013460;28;20034;-43
2022/04/07 11:14:44;;;;;;;42.33;7.60;;;;;;;;;;5013477;28;20034;-43
2022/04/07 11:17:14;;;;;;;45.30;7.88;;;;;;;;;;5013388;28;20026;-44
2022/04/07 11:19:51;;;;;;;43.70;8.15;;;;;;;;;;5013593;28;20049;-43
2022/04/07 11:22:22;;;;;;;38.15;8.00;;;;;;;;;;5013487;28;20034;-43
2022/04/07 11:24:56;;;;;;;45.50;7.18;;;;;;;;;;5007107;28;20116;-37
2022/04/07 11:27:38;;;;;;;37.13;7.13;;;;;;;;;;5012132;28;20034;-38
2022/04/07 11:30:09;;;;;;;40.97;7.70;;;;;;;;;;5011353;28;20479;-37
2022/04/07 11:32:37;;;;;;;37.78;7.18;;;;;;;;;;5012404;28;20072;-38
2022/04/07 11:35:14;;;;;;;42.25;6.95;;;;;;;;;;5011940;28;20073;-40
2022/04/07 11:37:42;;;;;;;38.38;7.35;;;;;;;;;;5012602;28;20029;-40
2022/04/07 11:40:10;;;;;;;38.35;6.82;;;;;;;;;;5011618;28;20083;-38
2022/04/07 11:42:37;;;;;;;38.17;7.20;;;;;;;;;;4994319;28;20489;-39
2022/04/07 11:45:04;;;;;;;36.08;6.63;;;;;;;;;;5012132;28;20065;-37
2022/04/07 11:47:37;;;;;;;32.15;6.40;;;;;;;;;;5012349;28;20058;-41
2022/04/07 11:50:05;;;;;;;32.10;7.20;;;;;;;;;;5012116;28;20037;-39
2022/04/07 11:52:33;;;;;;;32.60;6.88;;;;;;;;;;5011743;28;20176;-38
2022/04/07 11:55:01;;;;;;;30.83;6.43;;;;;;;;;;5012459;28;20448;-49
2022/04/07 11:57:29;;;;;;;35.50;6.57;;;;;;;;;;5012014;28;20053;-39
2022/04/07 12:00:01;;;;;;;37.65;6.00;;;;;;;;;;5009678;28;20061;-38
2022/04/07 12:02:28;;;;;;;38.80;7.25;;;;;;;;;;5011096;28;20549;-39
2022/04/07 12:04:58;;;;;;;32.97;7.15;;;;;;;;;;5010085;28;20035;-43
2022/04/07 12:07:26;;;;;;;41.53;6.60;;;;;;;;;;4992160;28;20030;-41
2022/04/07 12:09:56;;;;;;;33.08;6.88;;;;;;;;;;4991960;28;20026;-42
2022/04/07 12:12:24;;;;;;;24.63;6.13;;;;;;;;;;4990525;28;20657;-45
2022/04/07 12:14:51;;;;;;;33.55;6.50;;;;;;;;;;4991760;28;20033;-41
2022/04/07 12:17:18;;;;;;;32.88;5.75;;;;;;;;;;4991834;28;20117;-44
2022/04/07 12:19:46;;;;;;;40.35;7.55;;;;;;;;;;4992240;28;20030;-42
2022/04/07 12:22:14;;;;;;;34.22;6.80;;;;;;;;;;4991718;28;20472;-44
2022/04/07 12:25:01;;;;;;;32.25;6.07;;;;;;;;;;4988244;28;20443;-40
2022/04/07 12:27:30;;;;;;;38.50;6.55;;;;;;;;;;4972280;28;20033;-39
2022/04/07 12:29:58;;;;;;;34.30;7.00;;;;;;;;;;4972465;28;20066;-39
2022/04/07 12:32:25;;;;;;;42.45;6.88;;;;;;;;;;4972162;28;20133;-42
2022/04/07 12:34:52;;;;;;;32.40;6.47;;;;;;;;;;4971284;28;20039;-47
2022/04/07 12:37:36;;;;;;;34.22;6.93;;;;;;;;;;4972363;28;20476;-46
2022/04/07 12:40:26;;;;;;;31.13;6.22;;;;;;;;;;4972383;28;20113;-40
2022/04/07 12:42:55;;;;;;;40.72;6.55;;;;;;;;;;4972165;28;20473;-40
2022/04/07 12:45:22;;;;;;;57.10;9.52;;;;;;;;;;4971362;28;20053;-44
2022/04/07 12:48:23;;;;;;;45.10;7.18;;;;;;;;;;4972415;28;20027;-45
2022/04/07 12:50:53;;;;;;;62.65;8.63;;;;;;;;;;4939955;28;20114;-43
2022/04/07 12:53:34;;;;;;;57.53;7.00;;;;;;;;;;4994365;28;20031;-42
2022/04/07 12:56:17;;;;;;;37.17;6.57;;;;;;;;;;4990453;28;20048;-41
2022/04/07 12:58:44;;;;;;;37.97;6.32;;;;;;;;;;4991194;28;20493;-45
2022/04/07 13:01:11;;;;;;;29.25;6.00;;;;;;;;;;4991614;28;20026;-44
2022/04/07 13:03:56;;;;;;;29.98;5.68;;;;;;;;;;4991675;28;20112;-46
2022/04/07 13:06:24;;;;;;;39.05;6.50;;;;;;;;;;4990447;28;20042;-49
2022/04/07 13:08:51;;;;;;;29.42;5.88;;;;;;;;;;5010906;28;20053;-49
2022/04/07 13:11:31;;;;;;;37.75;6.07;;;;;;;;;;5011123;28;20037;-51
2022/04/07 13:13:58;;;;;;;43.50;6.05;;;;;;;;;;5010925;28;20033;-47
2022/04/07 13:16:25;;;;;;;35.33;5.75;;;;;;;;;;5010669;28;20034;-47
2022/04/07 13:18:52;;;;;;;31.92;5.65;;;;;;;;;;5011551;28;20022;-46
2022/04/07 13:21:19;;;;;;;56.47;6.65;;;;;;;;;;5010195;28;20095;-46
2022/04/07 13:23:46;;;;;;;32.67;4.88;;;;;;;;;;5012381;28;20026;-47
2022/04/07 13:26:13;;;;;;;71.53;6.75;;;;;;;;;;5025628;28;20059;-53
2022/04/07 13:28:40;;;;;;;43.22;5.72;;;;;;;;;;5013770;28;20037;-44
2022/04/07 13:31:07;;;;;;;39.75;5.50;;;;;;;;;;5014626;28;20026;-47
2022/04/07 13:33:35;;;;;;;28.50;4.35;;;;;;;;;;5015090;28;20407;-41
2022/04/07 13:36:02;;;;;;;40.95;5.20;;;;;;;;;;5014202;28;20623;-40
2022/04/07 13:38:32;;;;;;;35.53;4.68;;;;;;;;;;5014866;28;20407;-43
2022/04/07 13:41:00;;;;;;;32.75;4.63;;;;;;;;;;5014885;28;20113;-41
2022/04/07 13:43:31;;;;;;;28.80;4.28;;;;;;;;;;5014600;28;20400;-41
2022/04/07 13:45:58;;;;;;;54.80;6.07;;;;;;;;;;5014040;28;20030;-44
2022/04/07 13:48:25;;;;;;;36.15;5.13;;;;;;;;;;5014446;28;20050;-41
2022/04/07 13:50:52;;;;;;;34.45;4.60;;;;;;;;;;5014453;28;20025;-45
2022/04/07 13:53:19;;;;;;;30.38;4.68;;;;;;;;;;5014443;28;20034;-46
2022/04/07 13:55:47;;;;;;;39.63;4.45;;;;;;;;;;5013415;28;20034;-45
2022/04/07 13:58:14;;;;;;;28.67;3.70;;;;;;;;;;5014125;28;20058;-43
2022/04/07 14:00:42;;;;;;;39.15;4.22;;;;;;;;;;5014694;28;20022;-42
2022/04/07 14:03:09;;;;;;;31.10;3.60;;;;;;;;;;5014384;28;20057;-40
2022/04/07 14:05:36;;;;;;;42.22;4.63;;;;;;;;;;5014338;28;20105;-41
2022/04/07 14:08:04;;;;;;;32.20;4.15;;;;;;;;;;5013564;28;20452;-41
2022/04/07 14:10:30;;;;;;;31.45;3.67;;;;;;;;;;5013354;28;20053;-43
2022/04/07 14:12:58;;;;;;;33.65;3.25;;;;;;;;;;5014133;28;20030;-39
2022/04/07 14:15:25;;;;;;;22.23;2.70;;;;;;;;;;5014299;28;20069;-41
2022/04/07 14:17:52;;;;;;;28.95;3.20;;;;;;;;;;5013509;28;20033;-40
2022/04/07 14:20:19;;;;;;;30.35;3.35;;;;;;;;;;5013780;28;20105;-49
2022/04/07 14:22:46;;;;;;;31.55;3.17;;;;;;;;;;5014159;28;20022;-45
2022/04/07 14:25:13;;;;;;;27.75;2.85;;;;;;;;;;5013697;28;20050;-45
2022/04/07 14:27:42;;;;;;;31.75;3.60;;;;;;;;;;5011196;28;20060;-45
2022/04/07 14:30:09;;;;;;;31.05;3.47;;;;;;;;;;5019574;28;20087;-41
2022/04/07 14:32:36;;;;;;;34.08;3.30;;;;;;;;;;5030654;28;20052;-42
2022/04/07 14:35:03;;;;;;;34.35;4.10;;;;;;;;;;5047503;28;20548;-42